sensor_id;sensor_type;location;lat;lon;timestamp;pressure;altitude;pressure_sealevel;temperature;humidity
71666;BME280;59503;53.486;10.196;2023-12-20T00:01:46;101067.72;;;4.21;100.00
71666;BME280;59503;53.486;10.196;2023-12-20T00:04:11;101070.53;;;4.16;100.00
71666;BME280;59503;53.486;10.196;2023-12-20T00:06:37;101075.25;;;4.11;100.00
71666;BME280;59503;53.486;10.196;2023-12-20T00:09:02;101057.50;;;4.01;100.00
71666;BME280;59503;53.486;10.196;2023-12-20T00:11:28;101063.06;;;4.05;100.00
71666;BME280;59503;53.486;10.196;2023-12-20T00:13:53;101058.91;;;3.99;100.00
71666;BME280;59503;53.486;10.196;2023-12-20T00:16:18;101057.81;;;4.00;100.00
71666;BME280;59503;53.486;10.196;2023-12-20T00:18:44;101052.38;;;3.91;100.00
71666;BME280;59503;53.486;10.196;2023-12-20T00:21:09;101047.75;;;3.83;100.00
71666;BME280;59503;53.486;10.196;2023-12-20T00:23:35;101053.50;;;3.68;100.00
71666;BME280;59503;53.486;10.196;2023-12-20T00:26:00;101053.00;;;3.57;100.00
71666;BME280;59503;53.486;10.196;2023-12-20T00:28:26;101052.50;;;3.55;100.00
71666;BME280;59503;53.486;10.196;2023-12-20T00:30:51;101047.13;;;3.55;100.00
71666;BME280;59503;53.486;10.196;2023-12-20T00:33:17;101048.53;;;3.53;100.00
71666;BME280;59503;53.486;10.196;2023-12-20T00:35:42;101053.25;;;3.47;100.00
71666;BME280;59503;53.486;10.196;2023-12-20T00:38:07;101044.56;;;3.50;100.00
71666;BME280;59503;53.486;10.196;2023-12-20T00:40:34;101049.34;;;3.53;100.00
71666;BME280;59503;53.486;10.196;2023-12-20T00:43:00;101045.31;;;3.64;100.00
71666;BME280;59503;53.486;10.196;2023-12-20T00:45:25;101040.22;;;3.63;100.00
71666;BME280;59503;53.486;10.196;2023-12-20T00:47:50;101037.56;;;3.71;100.00
71666;BME280;59503;53.486;10.196;2023-12-20T00:50:16;101028.28;;;3.77;100.00
71666;BME280;59503;53.486;10.196;2023-12-20T00:52:41;101036.09;;;3.88;100.00
71666;BME280;59503;53.486;10.196;2023-12-20T00:55:07;101038.50;;;3.98;100.00
71666;BME280;59503;53.486;10.196;2023-12-20T00:57:33;101025.53;;;4.00;100.00
71666;BME280;59503;53.486;10.196;2023-12-20T00:59:58;101024.28;;;4.06;100.00
71666;BME280;59503;53.486;10.196;2023-12-20T01:02:24;101014.03;;;4.16;100.00
71666;BME280;59503;53.486;10.196;2023-12-20T01:04:49;101020.22;;;4.25;100.00
71666;BME280;59503;53.486;10.196;2023-12-20T01:07:14;101002.19;;;4.26;100.00
71666;BME280;59503;53.486;10.196;2023-12-20T01:09:40;101006.94;;;4.29;100.00
71666;BME280;59503;53.486;10.196;2023-12-20T01:12:05;101013.94;;;4.30;100.00
71666;BME280;59503;53.486;10.196;2023-12-20T01:14:31;101009.31;;;4.30;100.00
71666;BME280;59503;53.486;10.196;2023-12-20T01:16:56;101015.34;;;4.36;100.00
71666;BME280;59503;53.486;10.196;2023-12-20T01:19:22;101012.50;;;4.32;100.00
71666;BME280;59503;53.486;10.196;2023-12-20T01:21:49;101022.31;;;4.28;100.00
71666;BME280;59503;53.486;10.196;2023-12-20T01:24:14;101018.34;;;4.26;100.00
71666;BME280;59503;53.486;10.196;2023-12-20T01:26:39;101016.59;;;4.21;100.00
71666;BME280;59503;53.486;10.196;2023-12-20T01:29:06;101018.47;;;4.21;100.00
71666;BME280;59503;53.486;10.196;2023-12-20T01:31:31;101005.31;;;4.11;100.00
71666;BME280;59503;53.486;10.196;2023-12-20T01:33:56;101001.34;;;4.00;100.00
71666;BME280;59503;53.486;10.196;2023-12-20T01:36:22;101008.75;;;3.94;100.00
71666;BME280;59503;53.486;10.196;2023-12-20T01:38:47;101007.25;;;3.79;100.00
71666;BME280;59503;53.486;10.196;2023-12-20T01:41:12;101013.56;;;3.75;100.00
71666;BME280;59503;53.486;10.196;2023-12-20T01:43:38;101014.63;;;3.65;100.00
71666;BME280;59503;53.486;10.196;2023-12-20T01:46:03;101016.00;;;3.54;100.00
71666;BME280;59503;53.486;10.196;2023-12-20T01:48:29;101008.78;;;3.41;100.00
71666;BME280;59503;53.486;10.196;2023-12-20T01:50:55;100992.16;;;3.31;100.00
71666;BME280;59503;53.486;10.196;2023-12-20T01:53:22;100992.16;;;3.31;100.00
71666;BME280;59503;53.486;10.196;2023-12-20T01:55:50;101001.22;;;3.43;100.00
71666;BME280;59503;53.486;10.196;2023-12-20T01:58:17;100996.50;;;3.49;100.00
71666;BME280;59503;53.486;10.196;2023-12-20T02:00:44;100984.66;;;3.50;100.00
71666;BME280;59503;53.486;10.196;2023-12-20T02:03:09;100988.63;;;3.52;100.00
71666;BME280;59503;53.486;10.196;2023-12-20T02:05:35;100982.09;;;3.45;100.00
71666;BME280;59503;53.486;10.196;2023-12-20T02:08:02;100991.44;;;3.47;100.00
71666;BME280;59503;53.486;10.196;2023-12-20T02:10:28;100990.22;;;3.53;100.00
71666;BME280;59503;53.486;10.196;2023-12-20T02:12:54;100978.69;;;3.61;100.00
71666;BME280;59503;53.486;10.196;2023-12-20T02:15:19;100980.66;;;3.69;100.00
71666;BME280;59503;53.486;10.196;2023-12-20T02:17:46;100976.72;;;3.75;100.00
71666;BME280;59503;53.486;10.196;2023-12-20T02:20:12;100977.53;;;3.76;100.00
71666;BME280;59503;53.486;10.196;2023-12-20T02:22:37;100970.84;;;3.73;100.00
71666;BME280;59503;53.486;10.196;2023-12-20T02:25:03;100963.41;;;3.70;100.00
71666;BME280;59503;53.486;10.196;2023-12-20T02:27:29;100954.38;;;3.66;100.00
71666;BME280;59503;53.486;10.196;2023-12-20T02:29:54;100956.13;;;3.62;100.00
71666;BME280;59503;53.486;10.196;2023-12-20T02:32:21;100953.44;;;3.62;100.00
71666;BME280;59503;53.486;10.196;2023-12-20T02:34:48;100942.69;;;3.62;100.00
71666;BME280;59503;53.486;10.196;2023-12-20T02:37:13;100937.00;;;3.64;100.00
71666;BME280;59503;53.486;10.196;2023-12-20T02:39:39;100934.47;;;3.67;100.00
71666;BME280;59503;53.486;10.196;2023-12-20T02:42:04;100942.56;;;3.76;100.00
71666;BME280;59503;53.486;10.196;2023-12-20T02:44:29;100942.88;;;3.74;100.00
71666;BME280;59503;53.486;10.196;2023-12-20T02:46:55;100939.56;;;3.77;100.00
71666;BME280;59503;53.486;10.196;2023-12-20T02:49:20;100937.06;;;3.81;100.00
71666;BME280;59503;53.486;10.196;2023-12-20T02:51:46;100932.94;;;3.83;100.00
71666;BME280;59503;53.486;10.196;2023-12-20T02:54:12;100944.50;;;3.93;100.00
71666;BME280;59503;53.486;10.196;2023-12-20T02:56:37;100940.09;;;3.97;100.00
71666;BME280;59503;53.486;10.196;2023-12-20T02:59:03;100944.38;;;3.98;100.00
71666;BME280;59503;53.486;10.196;2023-12-20T03:01:30;100931.56;;;3.95;100.00
71666;BME280;59503;53.486;10.196;2023-12-20T03:03:58;100915.88;;;3.88;100.00
71666;BME280;59503;53.486;10.196;2023-12-20T03:06:24;100936.13;;;3.94;100.00
71666;BME280;59503;53.486;10.196;2023-12-20T03:08:49;100925.22;;;3.91;100.00
71666;BME280;59503;53.486;10.196;2023-12-20T03:11:15;100932.31;;;3.95;100.00
71666;BME280;59503;53.486;10.196;2023-12-20T03:13:40;100908.44;;;3.94;100.00
71666;BME280;59503;53.486;10.196;2023-12-20T03:16:13;100917.16;;;3.99;100.00
71666;BME280;59503;53.486;10.196;2023-12-20T03:18:39;100919.84;;;3.99;100.00
71666;BME280;59503;53.486;10.196;2023-12-20T03:21:05;100911.47;;;4.01;100.00
71666;BME280;59503;53.486;10.196;2023-12-20T03:23:31;100904.66;;;3.95;100.00
71666;BME280;59503;53.486;10.196;2023-12-20T03:25:58;100910.34;;;4.02;100.00
71666;BME280;59503;53.486;10.196;2023-12-20T03:28:23;100897.56;;;4.07;100.00
71666;BME280;59503;53.486;10.196;2023-12-20T03:30:49;100900.25;;;4.07;100.00
71666;BME280;59503;53.486;10.196;2023-12-20T03:33:14;100900.88;;;4.04;100.00
71666;BME280;59503;53.486;10.196;2023-12-20T03:35:40;100894.22;;;4.02;100.00
71666;BME280;59503;53.486;10.196;2023-12-20T03:38:05;100896.75;;;4.07;100.00
71666;BME280;59503;53.486;10.196;2023-12-20T03:40:31;100898.84;;;4.10;100.00
71666;BME280;59503;53.486;10.196;2023-12-20T03:42:56;100896.16;;;4.10;100.00
71666;BME280;59503;53.486;10.196;2023-12-20T03:45:21;100893.31;;;4.15;100.00
71666;BME280;59503;53.486;10.196;2023-12-20T03:47:47;100893.00;;;4.25;100.00
71666;BME280;59503;53.486;10.196;2023-12-20T03:50:13;100880.16;;;4.22;100.00
71666;BME280;59503;53.486;10.196;2023-12-20T03:52:39;100886.34;;;4.22;100.00
71666;BME280;59503;53.486;10.196;2023-12-20T03:55:05;100883.16;;;4.29;100.00
71666;BME280;59503;53.486;10.196;2023-12-20T03:57:31;100886.03;;;4.32;100.00
71666;BME280;59503;53.486;10.196;2023-12-20T03:59:56;100877.63;;;4.25;100.00
71666;BME280;59503;53.486;10.196;2023-12-20T04:02:22;100881.13;;;4.34;100.00
71666;BME280;59503;53.486;10.196;2023-12-20T04:04:47;100869.25;;;4.35;100.00
71666;BME280;59503;53.486;10.196;2023-12-20T04:07:12;100870.19;;;4.31;100.00
71666;BME280;59503;53.486;10.196;2023-12-20T04:09:38;100871.81;;;4.32;100.00
71666;BME280;59503;53.486;10.196;2023-12-20T04:12:04;100867.34;;;4.36;100.00
71666;BME280;59503;53.486;10.196;2023-12-20T04:14:30;100858.97;;;4.37;100.00
71666;BME280;59503;53.486;10.196;2023-12-20T04:16:56;100852.81;;;4.37;100.00
71666;BME280;59503;53.486;10.196;2023-12-20T04:19:21;100848.84;;;4.34;100.00
71666;BME280;59503;53.486;10.196;2023-12-20T04:21:47;100852.00;;;4.45;100.00
71666;BME280;59503;53.486;10.196;2023-12-20T04:24:12;100852.16;;;4.40;100.00
71666;BME280;59503;53.486;10.196;2023-12-20T04:26:38;100846.63;;;4.45;100.00
71666;BME280;59503;53.486;10.196;2023-12-20T04:29:03;100853.09;;;4.44;100.00
71666;BME280;59503;53.486;10.196;2023-12-20T04:31:28;100840.44;;;4.36;100.00
71666;BME280;59503;53.486;10.196;2023-12-20T04:33:54;100847.88;;;4.47;100.00
71666;BME280;59503;53.486;10.196;2023-12-20T04:36:19;100848.81;;;4.51;100.00
71666;BME280;59503;53.486;10.196;2023-12-20T04:38:45;100838.69;;;4.48;100.00
71666;BME280;59503;53.486;10.196;2023-12-20T04:41:10;100825.69;;;4.50;100.00
71666;BME280;59503;53.486;10.196;2023-12-20T04:43:36;100828.09;;;4.52;100.00
71666;BME280;59503;53.486;10.196;2023-12-20T04:46:03;100817.94;;;4.49;100.00
71666;BME280;59503;53.486;10.196;2023-12-20T04:48:28;100811.78;;;4.40;100.00
71666;BME280;59503;53.486;10.196;2023-12-20T04:50:53;100811.97;;;4.43;100.00
71666;BME280;59503;53.486;10.196;2023-12-20T04:53:19;100807.19;;;4.40;100.00
71666;BME280;59503;53.486;10.196;2023-12-20T04:55:45;100802.13;;;4.39;100.00
71666;BME280;59503;53.486;10.196;2023-12-20T04:58:10;100815.75;;;4.42;100.00
71666;BME280;59503;53.486;10.196;2023-12-20T05:00:35;100804.81;;;4.47;100.00
71666;BME280;59503;53.486;10.196;2023-12-20T05:03:01;100807.66;;;4.51;100.00
71666;BME280;59503;53.486;10.196;2023-12-20T05:05:26;100794.84;;;4.48;100.00
71666;BME280;59503;53.486;10.196;2023-12-20T05:07:52;100789.31;;;4.44;100.00
71666;BME280;59503;53.486;10.196;2023-12-20T05:10:17;100807.34;;;4.52;100.00
71666;BME280;59503;53.486;10.196;2023-12-20T05:12:43;100798.31;;;4.57;100.00
71666;BME280;59503;53.486;10.196;2023-12-20T05:15:08;100802.88;;;4.65;100.00
71666;BME280;59503;53.486;10.196;2023-12-20T05:17:34;100803.81;;;4.69;100.00
71666;BME280;59503;53.486;10.196;2023-12-20T05:20:00;100794.31;;;4.71;100.00
71666;BME280;59503;53.486;10.196;2023-12-20T05:22:25;100788.31;;;4.66;100.00
71666;BME280;59503;53.486;10.196;2023-12-20T05:24:50;100796.69;;;4.73;100.00
71666;BME280;59503;53.486;10.196;2023-12-20T05:27:16;100794.16;;;4.68;100.00
71666;BME280;59503;53.486;10.196;2023-12-20T05:29:41;100782.41;;;4.72;100.00
71666;BME280;59503;53.486;10.196;2023-12-20T05:32:07;100790.66;;;4.76;100.00
71666;BME280;59503;53.486;10.196;2023-12-20T05:34:32;100782.75;;;4.71;100.00
71666;BME280;59503;53.486;10.196;2023-12-20T05:36:58;100786.38;;;4.75;100.00
71666;BME280;59503;53.486;10.196;2023-12-20T05:39:23;100784.16;;;4.77;100.00
71666;BME280;59503;53.486;10.196;2023-12-20T05:41:49;100784.16;;;4.77;100.00
71666;BME280;59503;53.486;10.196;2023-12-20T05:44:14;100788.25;;;4.83;100.00
71666;BME280;59503;53.486;10.196;2023-12-20T05:46:40;100784.91;;;4.86;100.00
71666;BME280;59503;53.486;10.196;2023-12-20T05:49:06;100777.00;;;4.81;100.00
71666;BME280;59503;53.486;10.196;2023-12-20T05:51:31;100771.13;;;4.87;100.00
71666;BME280;59503;53.486;10.196;2023-12-20T05:53:56;100771.91;;;4.88;100.00
71666;BME280;59503;53.486;10.196;2023-12-20T05:56:22;100777.94;;;4.93;100.00
71666;BME280;59503;53.486;10.196;2023-12-20T05:58:47;100769.06;;;4.93;100.00
71666;BME280;59503;53.486;10.196;2023-12-20T06:01:16;100777.28;;;4.96;100.00
71666;BME280;59503;53.486;10.196;2023-12-20T06:03:44;100759.06;;;4.93;100.00
71666;BME280;59503;53.486;10.196;2023-12-20T06:06:11;100766.34;;;4.93;100.00
71666;BME280;59503;53.486;10.196;2023-12-20T06:08:38;100762.44;;;4.90;100.00
71666;BME280;59503;53.486;10.196;2023-12-20T06:11:03;100772.84;;;5.00;100.00
71666;BME280;59503;53.486;10.196;2023-12-20T06:13:29;100763.66;;;4.93;100.00
71666;BME280;59503;53.486;10.196;2023-12-20T06:15:55;100776.00;;;4.94;100.00
71666;BME280;59503;53.486;10.196;2023-12-20T06:18:21;100765.88;;;4.91;100.00
71666;BME280;59503;53.486;10.196;2023-12-20T06:20:46;100760.34;;;4.87;100.00
71666;BME280;59503;53.486;10.196;2023-12-20T06:23:11;100760.53;;;4.82;100.00
71666;BME280;59503;53.486;10.196;2023-12-20T06:25:37;100746.44;;;4.85;100.00
71666;BME280;59503;53.486;10.196;2023-12-20T06:28:02;100749.44;;;4.84;100.00
71666;BME280;59503;53.486;10.196;2023-12-20T06:30:28;100750.72;;;4.78;100.00
71666;BME280;59503;53.486;10.196;2023-12-20T06:32:54;100746.66;;;4.72;100.00
71666;BME280;59503;53.486;10.196;2023-12-20T06:35:19;100743.63;;;4.73;100.00
71666;BME280;59503;53.486;10.196;2023-12-20T06:37:45;100739.81;;;4.74;100.00
71666;BME280;59503;53.486;10.196;2023-12-20T06:40:11;100745.34;;;4.78;100.00
71666;BME280;59503;53.486;10.196;2023-12-20T06:42:36;100724.09;;;4.85;100.00
71666;BME280;59503;53.486;10.196;2023-12-20T06:45:03;100741.19;;;4.89;100.00
71666;BME280;59503;53.486;10.196;2023-12-20T06:47:28;100744.34;;;4.91;100.00
71666;BME280;59503;53.486;10.196;2023-12-20T06:49:54;100735.16;;;4.92;100.00
71666;BME280;59503;53.486;10.196;2023-12-20T06:52:19;100720.09;;;4.91;100.00
71666;BME280;59503;53.486;10.196;2023-12-20T06:54:45;100720.44;;;4.89;100.00
71666;BME280;59503;53.486;10.196;2023-12-20T06:57:10;100714.13;;;4.85;100.00
71666;BME280;59503;53.486;10.196;2023-12-20T06:59:42;100710.16;;;4.83;100.00
71666;BME280;59503;53.486;10.196;2023-12-20T07:02:08;100720.28;;;4.86;100.00
71666;BME280;59503;53.486;10.196;2023-12-20T07:04:34;100709.22;;;4.79;100.00
71666;BME280;59503;53.486;10.196;2023-12-20T07:06:59;100701.78;;;4.76;100.00
71666;BME280;59503;53.486;10.196;2023-12-20T07:09:26;100695.56;;;4.84;100.00
71666;BME280;59503;53.486;10.196;2023-12-20T07:11:52;100703.16;;;4.90;100.00
71666;BME280;59503;53.486;10.196;2023-12-20T07:14:17;100696.81;;;4.95;100.00
71666;BME280;59503;53.486;10.196;2023-12-20T07:16:43;100697.13;;;4.93;100.00
71666;BME280;59503;53.486;10.196;2023-12-20T07:19:08;100698.09;;;4.89;100.00
71666;BME280;59503;53.486;10.196;2023-12-20T07:21:34;100690.06;;;4.80;100.00
71666;BME280;59503;53.486;10.196;2023-12-20T07:23:59;100692.47;;;4.73;100.00
71666;BME280;59503;53.486;10.196;2023-12-20T07:26:24;100710.03;;;4.79;100.00
71666;BME280;59503;53.486;10.196;2023-12-20T07:28:50;100708.78;;;4.77;100.00
71666;BME280;59503;53.486;10.196;2023-12-20T07:31:16;100703.53;;;4.80;100.00
71666;BME280;59503;53.486;10.196;2023-12-20T07:33:41;100692.78;;;4.80;100.00
71666;BME280;59503;53.486;10.196;2023-12-20T07:36:07;100696.69;;;4.83;100.00
71666;BME280;59503;53.486;10.196;2023-12-20T07:38:33;100678.66;;;4.83;100.00
71666;BME280;59503;53.486;10.196;2023-12-20T07:40:58;100699.16;;;4.96;100.00
71666;BME280;59503;53.486;10.196;2023-12-20T07:43:24;100696.16;;;4.98;100.00
71666;BME280;59503;53.486;10.196;2023-12-20T07:45:49;100684.72;;;5.01;100.00
71666;BME280;59503;53.486;10.196;2023-12-20T07:48:14;100689.19;;;4.97;100.00
71666;BME280;59503;53.486;10.196;2023-12-20T07:50:41;100693.44;;;4.98;100.00
71666;BME280;59503;53.486;10.196;2023-12-20T07:53:07;100685.31;;;5.06;100.00
71666;BME280;59503;53.486;10.196;2023-12-20T07:55:33;100670.59;;;5.04;100.00
71666;BME280;59503;53.486;10.196;2023-12-20T07:57:59;100686.69;;;5.13;100.00
71666;BME280;59503;53.486;10.196;2023-12-20T08:00:24;100685.94;;;5.12;100.00
71666;BME280;59503;53.486;10.196;2023-12-20T08:02:50;100680.41;;;5.08;100.00
71666;BME280;59503;53.486;10.196;2023-12-20T08:05:15;100678.31;;;5.14;100.00
71666;BME280;59503;53.486;10.196;2023-12-20T08:07:41;100673.84;;;5.18;100.00
71666;BME280;59503;53.486;10.196;2023-12-20T08:10:06;100669.78;;;5.12;100.00
71666;BME280;59503;53.486;10.196;2023-12-20T08:12:32;100672.56;;;5.24;100.00
71666;BME280;59503;53.486;10.196;2023-12-20T08:14:59;100659.28;;;5.19;100.00
71666;BME280;59503;53.486;10.196;2023-12-20T08:17:24;100675.16;;;5.33;100.00
71666;BME280;59503;53.486;10.196;2023-12-20T08:19:50;100672.41;;;5.41;100.00
71666;BME280;59503;53.486;10.196;2023-12-20T08:22:16;100661.00;;;5.44;100.00
71666;BME280;59503;53.486;10.196;2023-12-20T08:24:41;100644.81;;;5.44;100.00
71666;BME280;59503;53.486;10.196;2023-12-20T08:27:07;100646.38;;;5.45;100.00
71666;BME280;59503;53.486;10.196;2023-12-20T08:29:32;100641.91;;;5.49;100.00
71666;BME280;59503;53.486;10.196;2023-12-20T08:31:59;100641.03;;;5.57;100.00
71666;BME280;59503;53.486;10.196;2023-12-20T08:34:24;100638.34;;;5.57;100.00
71666;BME280;59503;53.486;10.196;2023-12-20T08:36:50;100643.06;;;5.60;100.00
71666;BME280;59503;53.486;10.196;2023-12-20T08:39:16;100635.25;;;5.67;100.00
71666;BME280;59503;53.486;10.196;2023-12-20T08:41:42;100623.66;;;5.67;100.00
71666;BME280;59503;53.486;10.196;2023-12-20T08:44:08;100632.81;;;5.74;100.00
71666;BME280;59503;53.486;10.196;2023-12-20T08:46:34;100619.75;;;5.76;100.00
71666;BME280;59503;53.486;10.196;2023-12-20T08:49:00;100615.69;;;5.70;100.00
71666;BME280;59503;53.486;10.196;2023-12-20T08:51:26;100624.84;;;5.78;100.00
71666;BME280;59503;53.486;10.196;2023-12-20T08:53:51;100606.47;;;5.71;100.00
71666;BME280;59503;53.486;10.196;2023-12-20T08:56:17;100606.59;;;5.75;100.00
71666;BME280;59503;53.486;10.196;2023-12-20T08:58:43;100610.50;;;5.86;100.00
71666;BME280;59503;53.486;10.196;2023-12-20T09:01:09;100599.88;;;6.01;100.00
71666;BME280;59503;53.486;10.196;2023-12-20T09:03:34;100593.00;;;6.04;100.00
71666;BME280;59503;53.486;10.196;2023-12-20T09:06:00;100596.03;;;6.02;100.00
71666;BME280;59503;53.486;10.196;2023-12-20T09:08:25;100607.50;;;5.99;100.00
71666;BME280;59503;53.486;10.196;2023-12-20T09:10:51;100616.66;;;5.86;100.00
71666;BME280;59503;53.486;10.196;2023-12-20T09:13:16;100605.84;;;5.74;100.00
71666;BME280;59503;53.486;10.196;2023-12-20T09:15:41;100611.66;;;5.64;100.00
71666;BME280;59503;53.486;10.196;2023-12-20T09:18:07;100601.84;;;5.60;100.00
71666;BME280;59503;53.486;10.196;2023-12-20T09:20:34;100602.38;;;5.53;100.00
71666;BME280;59503;53.486;10.196;2023-12-20T09:22:59;100605.75;;;5.50;100.00
71666;BME280;59503;53.486;10.196;2023-12-20T09:25:25;100606.41;;;5.47;100.00
71666;BME280;59503;53.486;10.196;2023-12-20T09:27:52;100633.56;;;5.42;100.00
71666;BME280;59503;53.486;10.196;2023-12-20T09:30:18;100636.78;;;5.36;100.00
71666;BME280;59503;53.486;10.196;2023-12-20T09:32:44;100651.63;;;5.21;100.00
71666;BME280;59503;53.486;10.196;2023-12-20T09:35:10;100654.50;;;5.16;100.00
71666;BME280;59503;53.486;10.196;2023-12-20T09:37:35;100640.97;;;5.04;100.00
71666;BME280;59503;53.486;10.196;2023-12-20T09:40:01;100641.75;;;5.04;100.00
71666;BME280;59503;53.486;10.196;2023-12-20T09:42:51;100640.97;;;5.04;100.00
71666;BME280;59503;53.486;10.196;2023-12-20T09:45:21;100630.19;;;5.04;100.00
71666;BME280;59503;53.486;10.196;2023-12-20T09:47:50;100618.38;;;4.96;100.00
71666;BME280;59503;53.486;10.196;2023-12-20T09:50:19;100632.16;;;4.95;100.00
71666;BME280;59503;53.486;10.196;2023-12-20T09:52:47;100629.94;;;4.97;100.00
71666;BME280;59503;53.486;10.196;2023-12-20T09:55:15;100633.91;;;4.91;100.00
71666;BME280;59503;53.486;10.196;2023-12-20T09:57:42;100629.28;;;5.00;100.00
71666;BME280;59503;53.486;10.196;2023-12-20T10:00:08;100630.06;;;5.00;100.00
71666;BME280;59503;53.486;10.196;2023-12-20T10:02:34;100624.78;;;5.04;100.00
71666;BME280;59503;53.486;10.196;2023-12-20T10:05:02;100623.22;;;5.03;100.00
71666;BME280;59503;53.486;10.196;2023-12-20T10:07:28;100621.19;;;5.00;100.00
71666;BME280;59503;53.486;10.196;2023-12-20T10:09:54;100615.34;;;4.98;100.00
71666;BME280;59503;53.486;10.196;2023-12-20T10:12:21;100614.22;;;4.99;100.00
71666;BME280;59503;53.486;10.196;2023-12-20T10:14:46;100611.28;;;4.92;100.00
71666;BME280;59503;53.486;10.196;2023-12-20T10:17:12;100601.59;;;4.91;100.00
71666;BME280;59503;53.486;10.196;2023-12-20T10:19:37;100581.03;;;4.86;100.00
71666;BME280;59503;53.486;10.196;2023-12-20T10:22:06;100590.25;;;4.85;100.00
71666;BME280;59503;53.486;10.196;2023-12-20T10:24:32;100595.22;;;4.75;100.00
71666;BME280;59503;53.486;10.196;2023-12-20T10:27:05;100633.25;;;4.73;100.00
71666;BME280;59503;53.486;10.196;2023-12-20T10:29:40;100637.22;;;4.67;100.00
71666;BME280;59503;53.486;10.196;2023-12-20T10:32:23;100634.38;;;4.64;100.00
71666;BME280;59503;53.486;10.196;2023-12-20T10:34:50;100624.75;;;4.63;100.00
71666;BME280;59503;53.486;10.196;2023-12-20T10:37:15;100625.41;;;4.60;100.00
71666;BME280;59503;53.486;10.196;2023-12-20T10:39:43;100630.78;;;4.60;100.00
71666;BME280;59503;53.486;10.196;2023-12-20T10:42:13;100623.19;;;4.62;100.00
71666;BME280;59503;53.486;10.196;2023-12-20T10:44:39;100605.63;;;4.56;100.00
71666;BME280;59503;53.486;10.196;2023-12-20T10:47:06;100602.41;;;4.62;100.00
71666;BME280;59503;53.486;10.196;2023-12-20T10:49:36;100600.31;;;4.68;100.00
71666;BME280;59503;53.486;10.196;2023-12-20T10:52:02;100600.31;;;4.68;100.00
71666;BME280;59503;53.486;10.196;2023-12-20T10:54:29;100595.09;;;4.71;100.00
71666;BME280;59503;53.486;10.196;2023-12-20T10:56:57;100587.47;;;4.73;100.00
71666;BME280;59503;53.486;10.196;2023-12-20T10:59:23;100595.94;;;4.84;100.00
71666;BME280;59503;53.486;10.196;2023-12-20T11:01:50;100592.75;;;4.90;100.00
71666;BME280;59503;53.486;10.196;2023-12-20T11:04:25;100591.50;;;4.88;100.00
71666;BME280;59503;53.486;10.196;2023-12-20T11:06:58;100593.72;;;4.86;100.00
71666;BME280;59503;53.486;10.196;2023-12-20T11:09:31;100595.50;;;4.82;100.00
71666;BME280;59503;53.486;10.196;2023-12-20T11:14:46;100584.84;;;4.65;100.00
71666;BME280;59503;53.486;10.196;2023-12-20T11:17:12;100588.56;;;4.72;100.00
71666;BME280;59503;53.486;10.196;2023-12-20T11:22:29;100584.91;;;4.77;100.00
71666;BME280;59503;53.486;10.196;2023-12-20T11:25:02;100580.78;;;4.79;100.00
71666;BME280;59503;53.486;10.196;2023-12-20T11:27:30;100588.25;;;4.74;100.00
71666;BME280;59503;53.486;10.196;2023-12-20T11:29:57;100582.84;;;4.74;100.00
71666;BME280;59503;53.486;10.196;2023-12-20T11:34:59;100591.50;;;4.88;100.00
71666;BME280;59503;53.486;10.196;2023-12-20T11:37:29;100587.38;;;4.90;100.00
71666;BME280;59503;53.486;10.196;2023-12-20T11:40:01;100592.44;;;4.92;100.00
71666;BME280;59503;53.486;10.196;2023-12-20T11:42:27;100572.03;;;4.82;100.00
71666;BME280;59503;53.486;10.196;2023-12-20T11:44:53;100602.72;;;4.90;100.00
71666;BME280;59503;53.486;10.196;2023-12-20T11:47:19;100592.44;;;4.92;100.00
71666;BME280;59503;53.486;10.196;2023-12-20T11:49:47;100607.25;;;4.98;100.00
71666;BME280;59503;53.486;10.196;2023-12-20T11:52:13;100609.97;;;4.98;100.00
71666;BME280;59503;53.486;10.196;2023-12-20T11:54:39;100613.78;;;4.97;100.00
71666;BME280;59503;53.486;10.196;2023-12-20T11:57:04;100592.94;;;5.06;100.00
71666;BME280;59503;53.486;10.196;2023-12-20T11:59:31;100609.19;;;5.18;100.00
71666;BME280;59503;53.486;10.196;2023-12-20T12:01:56;100589.41;;;5.14;100.00
71666;BME280;59503;53.486;10.196;2023-12-20T12:04:26;100589.34;;;5.02;100.00
71666;BME280;59503;53.486;10.196;2023-12-20T12:06:52;100590.91;;;5.03;100.00
71666;BME280;59503;53.486;10.196;2023-12-20T12:09:17;100593.59;;;5.03;100.00
71666;BME280;59503;53.486;10.196;2023-12-20T12:11:43;100589.88;;;4.95;100.00
71666;BME280;59503;53.486;10.196;2023-12-20T12:14:09;100594.47;;;4.95;100.00
71666;BME280;59503;53.486;10.196;2023-12-20T12:16:35;100604.28;;;4.91;100.00
71666;BME280;59503;53.486;10.196;2023-12-20T12:19:00;100597.88;;;4.83;100.00
71666;BME280;59503;53.486;10.196;2023-12-20T12:21:26;100595.50;;;4.82;100.00
71666;BME280;59503;53.486;10.196;2023-12-20T12:23:52;100593.38;;;4.87;100.00
71666;BME280;59503;53.486;10.196;2023-12-20T12:26:18;100592.75;;;4.90;100.00
71666;BME280;59503;53.486;10.196;2023-12-20T12:28:44;100584.25;;;4.80;100.00
71666;BME280;59503;53.486;10.196;2023-12-20T12:31:18;100582.72;;;4.70;100.00
71666;BME280;59503;53.486;10.196;2023-12-20T12:33:44;100577.66;;;4.69;100.00
71666;BME280;59503;53.486;10.196;2023-12-20T12:36:10;100576.31;;;4.83;100.00
71666;BME280;59503;53.486;10.196;2023-12-20T12:38:36;100580.25;;;4.86;100.00
71666;BME280;59503;53.486;10.196;2023-12-20T12:41:02;100575.41;;;5.00;100.00
71666;BME280;59503;53.486;10.196;2023-12-20T12:43:27;100590.50;;;5.13;100.00